sensor_id;sensor_type;location;lat;lon;timestamp;P1;durP1;ratioP1;P2;durP2;ratioP2
63398;SDS011;49533;-34.520;150.798;2022-11-03T00:00:45;0.30;;;0.22;;
63398;SDS011;49533;-34.520;150.798;2022-11-03T00:03:13;0.90;;;0.40;;
63398;SDS011;49533;-34.520;150.798;2022-11-03T00:05:41;0.40;;;0.17;;
63398;SDS011;49533;-34.520;150.798;2022-11-03T00:08:21;1.83;;;0.28;;
63398;SDS011;49533;-34.520;150.798;2022-11-03T00:10:48;0.88;;;0.30;;
63398;SDS011;49533;-34.520;150.798;2022-11-03T00:13:16;2.90;;;0.57;;
63398;SDS011;49533;-34.520;150.798;2022-11-03T00:15:48;0.75;;;0.30;;
63398;SDS011;49533;-34.520;150.798;2022-11-03T00:18:16;0.43;;;0.28;;
63398;SDS011;49533;-34.520;150.798;2022-11-03T00:20:44;0.28;;;0.20;;
63398;SDS011;49533;-34.520;150.798;2022-11-03T00:23:20;0.43;;;0.20;;
63398;SDS011;49533;-34.520;150.798;2022-11-03T00:25:50;0.43;;;0.20;;
63398;SDS011;49533;-34.520;150.798;2022-11-03T00:28:18;0.35;;;0.30;;
63398;SDS011;49533;-34.520;150.798;2022-11-03T00:30:46;0.15;;;0.13;;
63398;SDS011;49533;-34.520;150.798;2022-11-03T00:33:14;0.57;;;0.35;;
63398;SDS011;49533;-34.520;150.798;2022-11-03T00:35:42;0.50;;;0.30;;
63398;SDS011;49533;-34.520;150.798;2022-11-03T00:38:10;1.35;;;0.25;;
63398;SDS011;49533;-34.520;150.798;2022-11-03T00:40:38;1.45;;;0.30;;
63398;SDS011;49533;-34.520;150.798;2022-11-03T00:43:06;0.60;;;0.30;;
63398;SDS011;49533;-34.520;150.798;2022-11-03T00:45:35;0.40;;;0.40;;
63398;SDS011;49533;-34.520;150.798;2022-11-03T00:48:03;0.80;;;0.35;;
63398;SDS011;49533;-34.520;150.798;2022-11-03T00:50:43;1.02;;;0.43;;
63398;SDS011;49533;-34.520;150.798;2022-11-03T00:53:11;0.45;;;0.45;;
63398;SDS011;49533;-34.520;150.798;2022-11-03T00:55:39;1.15;;;0.47;;
63398;SDS011;49533;-34.520;150.798;2022-11-03T00:58:07;1.10;;;0.50;;
63398;SDS011;49533;-34.520;150.798;2022-11-03T01:00:35;0.40;;;0.30;;
63398;SDS011;49533;-34.520;150.798;2022-11-03T01:03:03;1.23;;;0.57;;
63398;SDS011;49533;-34.520;150.798;2022-11-03T01:05:32;0.98;;;0.60;;
63398;SDS011;49533;-34.520;150.798;2022-11-03T01:08:11;1.75;;;0.45;;
63398;SDS011;49533;-34.520;150.798;2022-11-03T01:10:40;1.00;;;0.50;;
63398;SDS011;49533;-34.520;150.798;2022-11-03T01:13:27;0.43;;;0.35;;
63398;SDS011;49533;-34.520;150.798;2022-11-03T01:15:57;0.47;;;0.35;;
63398;SDS011;49533;-34.520;150.798;2022-11-03T01:18:25;0.63;;;0.50;;
63398;SDS011;49533;-34.520;150.798;2022-11-03T01:20:54;2.67;;;0.40;;
63398;SDS011;49533;-34.520;150.798;2022-11-03T01:23:22;0.77;;;0.40;;
63398;SDS011;49533;-34.520;150.798;2022-11-03T01:25:50;0.75;;;0.30;;
63398;SDS011;49533;-34.520;150.798;2022-11-03T01:28:18;1.27;;;0.43;;
63398;SDS011;49533;-34.520;150.798;2022-11-03T01:30:46;0.60;;;0.50;;
63398;SDS011;49533;-34.520;150.798;2022-11-03T01:33:14;0.30;;;0.20;;
63398;SDS011;49533;-34.520;150.798;2022-11-03T01:35:42;0.52;;;0.30;;
63398;SDS011;49533;-34.520;150.798;2022-11-03T01:38:10;0.55;;;0.25;;
63398;SDS011;49533;-34.520;150.798;2022-11-03T01:40:39;1.00;;;0.40;;
63398;SDS011;49533;-34.520;150.798;2022-11-03T01:43:14;0.65;;;0.43;;
63398;SDS011;49533;-34.520;150.798;2022-11-03T01:45:44;0.60;;;0.50;;
63398;SDS011;49533;-34.520;150.798;2022-11-03T01:48:15;0.65;;;0.32;;
63398;SDS011;49533;-34.520;150.798;2022-11-03T01:50:45;2.08;;;0.55;;
63398;SDS011;49533;-34.520;150.798;2022-11-03T01:53:14;0.20;;;0.20;;
63398;SDS011;49533;-34.520;150.798;2022-11-03T01:55:44;1.50;;;0.57;;
63398;SDS011;49533;-34.520;150.798;2022-11-03T01:58:17;0.90;;;0.30;;
63398;SDS011;49533;-34.520;150.798;2022-11-03T02:00:51;0.63;;;0.10;;
63398;SDS011;49533;-34.520;150.798;2022-11-03T02:03:24;1.13;;;0.30;;
63398;SDS011;49533;-34.520;150.798;2022-11-03T02:05:55;1.00;;;0.38;;
63398;SDS011;49533;-34.520;150.798;2022-11-03T02:08:25;1.52;;;0.43;;
63398;SDS011;49533;-34.520;150.798;2022-11-03T02:11:00;0.38;;;0.20;;
63398;SDS011;49533;-34.520;150.798;2022-11-03T02:13:48;0.98;;;0.47;;
63398;SDS011;49533;-34.520;150.798;2022-11-03T02:16:16;0.43;;;0.30;;
63398;SDS011;49533;-34.520;150.798;2022-11-03T02:18:46;0.30;;;0.20;;
63398;SDS011;49533;-34.520;150.798;2022-11-03T02:21:21;0.80;;;0.15;;
63398;SDS011;49533;-34.520;150.798;2022-11-03T02:24:03;0.40;;;0.20;;
63398;SDS011;49533;-34.520;150.798;2022-11-03T02:26:49;1.38;;;0.30;;
63398;SDS011;49533;-34.520;150.798;2022-11-03T02:29:22;0.45;;;0.08;;
63398;SDS011;49533;-34.520;150.798;2022-11-03T02:32:09;0.63;;;0.13;;
63398;SDS011;49533;-34.520;150.798;2022-11-03T02:34:44;0.85;;;0.30;;
63398;SDS011;49533;-34.520;150.798;2022-11-03T02:37:24;2.00;;;0.30;;
63398;SDS011;49533;-34.520;150.798;2022-11-03T02:39:57;1.80;;;0.20;;
63398;SDS011;49533;-34.520;150.798;2022-11-03T02:42:33;2.15;;;0.25;;
63398;SDS011;49533;-34.520;150.798;2022-11-03T02:45:04;1.48;;;0.30;;
63398;SDS011;49533;-34.520;150.798;2022-11-03T02:47:36;1.48;;;0.20;;
63398;SDS011;49533;-34.520;150.798;2022-11-03T02:50:06;1.85;;;0.30;;
63398;SDS011;49533;-34.520;150.798;2022-11-03T02:52:36;1.13;;;0.15;;
63398;SDS011;49533;-34.520;150.798;2022-11-03T02:55:09;1.00;;;0.25;;
63398;SDS011;49533;-34.520;150.798;2022-11-03T02:57:48;0.60;;;0.10;;
63398;SDS011;49533;-34.520;150.798;2022-11-03T03:00:22;0.85;;;0.25;;
63398;SDS011;49533;-34.520;150.798;2022-11-03T03:02:53;0.75;;;0.22;;
63398;SDS011;49533;-34.520;150.798;2022-11-03T03:05:32;2.20;;;0.40;;
63398;SDS011;49533;-34.520;150.798;2022-11-03T03:08:03;0.32;;;0.20;;
63398;SDS011;49533;-34.520;150.798;2022-11-03T03:10:37;1.17;;;0.40;;
63398;SDS011;49533;-34.520;150.798;2022-11-03T03:13:09;2.75;;;0.22;;
63398;SDS011;49533;-34.520;150.798;2022-11-03T03:18:45;0.10;;;0.10;;
63398;SDS011;49533;-34.520;150.798;2022-11-03T03:21:25;0.38;;;0.20;;
63398;SDS011;49533;-34.520;150.798;2022-11-03T03:24:00;0.40;;;0.30;;
63398;SDS011;49533;-34.520;150.798;2022-11-03T03:26:36;0.68;;;0.20;;
63398;SDS011;49533;-34.520;150.798;2022-11-03T03:29:10;1.67;;;0.20;;
63398;SDS011;49533;-34.520;150.798;2022-11-03T03:31:48;0.75;;;0.20;;
63398;SDS011;49533;-34.520;150.798;2022-11-03T03:34:22;0.93;;;0.22;;
63398;SDS011;49533;-34.520;150.798;2022-11-03T03:36:53;0.52;;;0.20;;
63398;SDS011;49533;-34.520;150.798;2022-11-03T03:39:25;0.10;;;0.00;;
63398;SDS011;49533;-34.520;150.798;2022-11-03T03:41:57;0.25;;;0.10;;
63398;SDS011;49533;-34.520;150.798;2022-11-03T03:44:28;0.15;;;0.10;;
63398;SDS011;49533;-34.520;150.798;2022-11-03T03:46:59;0.15;;;0.10;;
63398;SDS011;49533;-34.520;150.798;2022-11-03T03:49:30;0.70;;;0.25;;
63398;SDS011;49533;-34.520;150.798;2022-11-03T03:51:58;1.40;;;0.28;;
63398;SDS011;49533;-34.520;150.798;2022-11-03T03:54:28;2.70;;;0.20;;
63398;SDS011;49533;-34.520;150.798;2022-11-03T03:56:59;0.93;;;0.20;;
63398;SDS011;49533;-34.520;150.798;2022-11-03T03:59:30;0.17;;;0.15;;
63398;SDS011;49533;-34.520;150.798;2022-11-03T04:01:58;0.88;;;0.20;;
63398;SDS011;49533;-34.520;150.798;2022-11-03T04:04:27;0.20;;;0.20;;
63398;SDS011;49533;-34.520;150.798;2022-11-03T04:06:55;0.45;;;0.20;;
63398;SDS011;49533;-34.520;150.798;2022-11-03T04:09:35;0.10;;;0.10;;
63398;SDS011;49533;-34.520;150.798;2022-11-03T04:12:03;0.13;;;0.13;;
63398;SDS011;49533;-34.520;150.798;2022-11-03T04:14:43;0.50;;;0.17;;
63398;SDS011;49533;-34.520;150.798;2022-11-03T04:17:23;0.50;;;0.20;;
63398;SDS011;49533;-34.520;150.798;2022-11-03T04:20:03;2.22;;;0.30;;
63398;SDS011;49533;-34.520;150.798;2022-11-03T04:22:47;2.83;;;0.55;;
63398;SDS011;49533;-34.520;150.798;2022-11-03T04:25:15;1.15;;;0.40;;
63398;SDS011;49533;-34.520;150.798;2022-11-03T04:27:43;3.17;;;0.47;;
63398;SDS011;49533;-34.520;150.798;2022-11-03T04:30:13;2.60;;;0.60;;
63398;SDS011;49533;-34.520;150.798;2022-11-03T04:32:43;1.45;;;0.52;;
63398;SDS011;49533;-34.520;150.798;2022-11-03T04:35:18;3.15;;;0.60;;
63398;SDS011;49533;-34.520;150.798;2022-11-03T04:37:53;5.32;;;1.08;;
63398;SDS011;49533;-34.520;150.798;2022-11-03T04:40:24;4.97;;;0.65;;
63398;SDS011;49533;-34.520;150.798;2022-11-03T04:42:56;2.80;;;1.08;;
63398;SDS011;49533;-34.520;150.798;2022-11-03T04:45:27;3.63;;;1.02;;
63398;SDS011;49533;-34.520;150.798;2022-11-03T04:47:57;6.00;;;0.77;;
63398;SDS011;49533;-34.520;150.798;2022-11-03T04:50:28;8.30;;;1.52;;
63398;SDS011;49533;-34.520;150.798;2022-11-03T04:52:57;2.60;;;0.95;;
63398;SDS011;49533;-34.520;150.798;2022-11-03T04:55:25;7.93;;;1.10;;
63398;SDS011;49533;-34.520;150.798;2022-11-03T04:57:55;4.18;;;0.95;;
63398;SDS011;49533;-34.520;150.798;2022-11-03T05:00:26;5.65;;;1.30;;
63398;SDS011;49533;-34.520;150.798;2022-11-03T05:02:54;3.85;;;1.30;;
63398;SDS011;49533;-34.520;150.798;2022-11-03T05:05:23;7.90;;;1.30;;
63398;SDS011;49533;-34.520;150.798;2022-11-03T05:07:54;3.00;;;0.85;;
63398;SDS011;49533;-34.520;150.798;2022-11-03T05:10:25;5.05;;;1.02;;
63398;SDS011;49533;-34.520;150.798;2022-11-03T05:12:55;8.57;;;1.15;;
63398;SDS011;49533;-34.520;150.798;2022-11-03T05:15:30;3.50;;;1.15;;
63398;SDS011;49533;-34.520;150.798;2022-11-03T05:18:08;5.63;;;1.13;;
63398;SDS011;49533;-34.520;150.798;2022-11-03T05:20:48;7.18;;;1.17;;
63398;SDS011;49533;-34.520;150.798;2022-11-03T05:23:23;5.47;;;0.82;;
63398;SDS011;49533;-34.520;150.798;2022-11-03T05:25:53;3.72;;;1.05;;
63398;SDS011;49533;-34.520;150.798;2022-11-03T05:28:27;4.50;;;1.13;;
63398;SDS011;49533;-34.520;150.798;2022-11-03T05:30:57;6.18;;;0.98;;
63398;SDS011;49533;-34.520;150.798;2022-11-03T05:33:28;5.25;;;1.20;;
63398;SDS011;49533;-34.520;150.798;2022-11-03T05:36:02;3.10;;;0.85;;
63398;SDS011;49533;-34.520;150.798;2022-11-03T05:38:38;6.38;;;1.45;;
63398;SDS011;49533;-34.520;150.798;2022-11-03T05:41:11;4.38;;;1.02;;
63398;SDS011;49533;-34.520;150.798;2022-11-03T05:43:47;5.88;;;1.27;;
63398;SDS011;49533;-34.520;150.798;2022-11-03T05:46:29;4.47;;;1.63;;
63398;SDS011;49533;-34.520;150.798;2022-11-03T05:49:01;8.18;;;1.45;;
63398;SDS011;49533;-34.520;150.798;2022-11-03T05:51:31;7.35;;;1.33;;
63398;SDS011;49533;-34.520;150.798;2022-11-03T05:54:05;9.70;;;1.40;;
63398;SDS011;49533;-34.520;150.798;2022-11-03T05:56:42;8.00;;;1.83;;
63398;SDS011;49533;-34.520;150.798;2022-11-03T05:59:10;10.93;;;1.90;;
63398;SDS011;49533;-34.520;150.798;2022-11-03T06:01:39;7.32;;;1.10;;
63398;SDS011;49533;-34.520;150.798;2022-11-03T06:04:17;7.57;;;1.50;;
63398;SDS011;49533;-34.520;150.798;2022-11-03T06:06:51;6.20;;;1.45;;
63398;SDS011;49533;-34.520;150.798;2022-11-03T06:09:24;5.30;;;1.35;;
63398;SDS011;49533;-34.520;150.798;2022-11-03T06:11:55;8.27;;;1.58;;
63398;SDS011;49533;-34.520;150.798;2022-11-03T06:14:27;9.90;;;2.08;;
63398;SDS011;49533;-34.520;150.798;2022-11-03T06:17:01;8.00;;;1.77;;
63398;SDS011;49533;-34.520;150.798;2022-11-03T06:19:37;7.30;;;1.73;;
63398;SDS011;49533;-34.520;150.798;2022-11-03T06:22:14;3.17;;;1.10;;
63398;SDS011;49533;-34.520;150.798;2022-11-03T06:24:58;7.88;;;1.55;;
63398;SDS011;49533;-34.520;150.798;2022-11-03T06:27:38;6.18;;;1.00;;
63398;SDS011;49533;-34.520;150.798;2022-11-03T06:30:18;7.07;;;1.60;;
63398;SDS011;49533;-34.520;150.798;2022-11-03T06:32:57;10.13;;;2.17;;
63398;SDS011;49533;-34.520;150.798;2022-11-03T06:35:27;6.05;;;1.45;;
63398;SDS011;49533;-34.520;150.798;2022-11-03T06:37:55;7.15;;;1.70;;
63398;SDS011;49533;-34.520;150.798;2022-11-03T06:40:29;6.85;;;1.63;;
63398;SDS011;49533;-34.520;150.798;2022-11-03T06:43:07;7.00;;;1.55;;
63398;SDS011;49533;-34.520;150.798;2022-11-03T06:45:51;8.60;;;1.75;;
63398;SDS011;49533;-34.520;150.798;2022-11-03T06:48:25;5.75;;;1.55;;
63398;SDS011;49533;-34.520;150.798;2022-11-03T06:50:55;7.25;;;1.40;;
63398;SDS011;49533;-34.520;150.798;2022-11-03T06:53:26;10.60;;;1.90;;
63398;SDS011;49533;-34.520;150.798;2022-11-03T06:55:58;7.75;;;1.52;;
63398;SDS011;49533;-34.520;150.798;2022-11-03T06:58:31;7.40;;;1.77;;
63398;SDS011;49533;-34.520;150.798;2022-11-03T07:01:14;7.57;;;2.00;;
63398;SDS011;49533;-34.520;150.798;2022-11-03T07:03:45;5.63;;;1.50;;
63398;SDS011;49533;-34.520;150.798;2022-11-03T07:06:19;4.13;;;1.15;;
63398;SDS011;49533;-34.520;150.798;2022-11-03T07:08:50;8.77;;;1.95;;
63398;SDS011;49533;-34.520;150.798;2022-11-03T07:11:25;5.82;;;1.60;;
63398;SDS011;49533;-34.520;150.798;2022-11-03T07:13:57;6.60;;;1.30;;
63398;SDS011;49533;-34.520;150.798;2022-11-03T07:16:39;6.43;;;1.48;;
63398;SDS011;49533;-34.520;150.798;2022-11-03T07:19:26;6.90;;;1.83;;
63398;SDS011;49533;-34.520;150.798;2022-11-03T07:22:01;6.18;;;1.67;;
63398;SDS011;49533;-34.520;150.798;2022-11-03T07:24:33;6.57;;;1.48;;
63398;SDS011;49533;-34.520;150.798;2022-11-03T07:29:56;7.22;;;1.42;;
63398;SDS011;49533;-34.520;150.798;2022-11-03T07:32:32;2.38;;;0.98;;
63398;SDS011;49533;-34.520;150.798;2022-11-03T07:35:54;7.25;;;1.95;;
63398;SDS011;49533;-34.520;150.798;2022-11-03T07:37:56;5.43;;;1.25;;
63398;SDS011;49533;-34.520;150.798;2022-11-03T07:40:30;5.47;;;1.50;;
63398;SDS011;49533;-34.520;150.798;2022-11-03T07:43:00;7.75;;;2.10;;
63398;SDS011;49533;-34.520;150.798;2022-11-03T07:45:48;5.70;;;1.15;;
63398;SDS011;49533;-34.520;150.798;2022-11-03T07:50:49;5.55;;;1.52;;
63398;SDS011;49533;-34.520;150.798;2022-11-03T07:53:30;7.63;;;1.95;;
63398;SDS011;49533;-34.520;150.798;2022-11-03T07:56:19;6.65;;;1.73;;
63398;SDS011;49533;-34.520;150.798;2022-11-03T08:01:47;4.45;;;1.35;;
63398;SDS011;49533;-34.520;150.798;2022-11-03T08:04:19;4.82;;;1.58;;
63398;SDS011;49533;-34.520;150.798;2022-11-03T08:06:51;7.18;;;1.77;;
63398;SDS011;49533;-34.520;150.798;2022-11-03T08:09:19;4.10;;;1.40;;
63398;SDS011;49533;-34.520;150.798;2022-11-03T08:11:47;4.18;;;1.15;;
63398;SDS011;49533;-34.520;150.798;2022-11-03T08:14:16;6.20;;;1.60;;
63398;SDS011;49533;-34.520;150.798;2022-11-03T08:16:44;6.50;;;1.42;;
63398;SDS011;49533;-34.520;150.798;2022-11-03T08:19:12;5.78;;;1.30;;
63398;SDS011;49533;-34.520;150.798;2022-11-03T08:21:41;4.50;;;1.40;;
63398;SDS011;49533;-34.520;150.798;2022-11-03T08:24:09;6.22;;;1.20;;
63398;SDS011;49533;-34.520;150.798;2022-11-03T08:26:37;7.78;;;1.55;;
63398;SDS011;49533;-34.520;150.798;2022-11-03T08:29:05;3.35;;;1.00;;
63398;SDS011;49533;-34.520;150.798;2022-11-03T08:31:34;5.25;;;1.55;;
63398;SDS011;49533;-34.520;150.798;2022-11-03T08:34:02;9.02;;;2.05;;
63398;SDS011;49533;-34.520;150.798;2022-11-03T08:36:30;5.22;;;1.55;;
63398;SDS011;49533;-34.520;150.798;2022-11-03T08:38:59;4.80;;;1.35;;
63398;SDS011;49533;-34.520;150.798;2022-11-03T08:41:27;4.82;;;1.27;;
63398;SDS011;49533;-34.520;150.798;2022-11-03T08:43:55;6.45;;;1.30;;
63398;SDS011;49533;-34.520;150.798;2022-11-03T08:46:23;3.15;;;1.50;;
63398;SDS011;49533;-34.520;150.798;2022-11-03T08:48:51;8.25;;;1.52;;
63398;SDS011;49533;-34.520;150.798;2022-11-03T08:51:19;4.75;;;1.17;;
63398;SDS011;49533;-34.520;150.798;2022-11-03T08:53:47;3.42;;;1.13;;
63398;SDS011;49533;-34.520;150.798;2022-11-03T08:56:18;8.30;;;1.35;;
63398;SDS011;49533;-34.520;150.798;2022-11-03T08:58:48;7.70;;;1.80;;
63398;SDS011;49533;-34.520;150.798;2022-11-03T09:01:16;4.80;;;1.08;;
63398;SDS011;49533;-34.520;150.798;2022-11-03T09:03:44;7.60;;;1.20;;
63398;SDS011;49533;-34.520;150.798;2022-11-03T09:06:12;7.30;;;1.60;;
63398;SDS011;49533;-34.520;150.798;2022-11-03T09:08:40;5.63;;;1.42;;
63398;SDS011;49533;-34.520;150.798;2022-11-03T09:11:08;4.97;;;2.30;;
63398;SDS011;49533;-34.520;150.798;2022-11-03T09:13:36;5.22;;;1.42;;
63398;SDS011;49533;-34.520;150.798;2022-11-03T09:16:04;6.60;;;1.77;;
63398;SDS011;49533;-34.520;150.798;2022-11-03T09:18:32;6.32;;;1.30;;
63398;SDS011;49533;-34.520;150.798;2022-11-03T09:21:00;8.45;;;1.35;;
63398;SDS011;49533;-34.520;150.798;2022-11-03T09:23:29;5.03;;;1.38;;
63398;SDS011;49533;-34.520;150.798;2022-11-03T09:25:57;14.80;;;2.47;;
63398;SDS011;49533;-34.520;150.798;2022-11-03T09:28:25;12.35;;;1.92;;
63398;SDS011;49533;-34.520;150.798;2022-11-03T09:30:53;4.75;;;1.70;;
63398;SDS011;49533;-34.520;150.798;2022-11-03T09:33:21;5.13;;;1.13;;
63398;SDS011;49533;-34.520;150.798;2022-11-03T09:35:49;6.45;;;1.80;;
63398;SDS011;49533;-34.520;150.798;2022-11-03T09:38:17;4.68;;;1.60;;
63398;SDS011;49533;-34.520;150.798;2022-11-03T09:40:45;5.25;;;1.20;;
63398;SDS011;49533;-34.520;150.798;2022-11-03T09:43:13;5.75;;;1.65;;
63398;SDS011;49533;-34.520;150.798;2022-11-03T09:45:41;4.07;;;1.58;;
63398;SDS011;49533;-34.520;150.798;2022-11-03T09:48:10;4.28;;;1.63;;
63398;SDS011;49533;-34.520;150.798;2022-11-03T09:50:39;5.28;;;1.58;;
63398;SDS011;49533;-34.520;150.798;2022-11-03T09:53:09;5.35;;;1.40;;
63398;SDS011;49533;-34.520;150.798;2022-11-03T09:55:38;4.88;;;1.50;;
63398;SDS011;49533;-34.520;150.798;2022-11-03T09:58:09;5.38;;;1.42;;
63398;SDS011;49533;-34.520;150.798;2022-11-03T10:00:42;2.13;;;1.10;;
63398;SDS011;49533;-34.520;150.798;2022-11-03T10:03:11;5.05;;;1.45;;
63398;SDS011;49533;-34.520;150.798;2022-11-03T10:05:42;2.22;;;1.20;;
63398;SDS011;49533;-34.520;150.798;2022-11-03T10:08:17;4.13;;;1.27;;
63398;SDS011;49533;-34.520;150.798;2022-11-03T10:10:55;3.47;;;1.05;;
63398;SDS011;49533;-34.520;150.798;2022-11-03T10:13:27;2.20;;;0.90;;
63398;SDS011;49533;-34.520;150.798;2022-11-03T10:15:59;3.20;;;1.33;;
63398;SDS011;49533;-34.520;150.798;2022-11-03T10:18:31;3.00;;;1.05;;
63398;SDS011;49533;-34.520;150.798;2022-11-03T10:21:05;4.05;;;1.30;;
63398;SDS011;49533;-34.520;150.798;2022-11-03T10:23:41;2.33;;;0.98;;
63398;SDS011;49533;-34.520;150.798;2022-11-03T10:26:13;3.78;;;1.30;;
63398;SDS011;49533;-34.520;150.798;2022-11-03T10:31:34;3.90;;;1.02;;
63398;SDS011;49533;-34.520;150.798;2022-11-03T10:34:05;1.77;;;1.02;;
63398;SDS011;49533;-34.520;150.798;2022-11-03T10:37:13;2.35;;;1.10;;
63398;SDS011;49533;-34.520;150.798;2022-11-03T10:42:16;3.35;;;1.17;;
63398;SDS011;49533;-34.520;150.798;2022-11-03T10:44:49;2.03;;;1.30;;
63398;SDS011;49533;-34.520;150.798;2022-11-03T10:47:25;1.95;;;0.98;;
63398;SDS011;49533;-34.520;150.798;2022-11-03T10:49:59;1.55;;;0.60;;
63398;SDS011;49533;-34.520;150.798;2022-11-03T10:52:40;2.55;;;0.75;;
63398;SDS011;49533;-34.520;150.798;2022-11-03T10:55:09;3.10;;;1.30;;
63398;SDS011;49533;-34.520;150.798;2022-11-03T10:57:37;2.58;;;1.10;;
63398;SDS011;49533;-34.520;150.798;2022-11-03T11:00:05;2.45;;;1.08;;
63398;SDS011;49533;-34.520;150.798;2022-11-03T11:02:39;3.33;;;1.13;;
63398;SDS011;49533;-34.520;150.798;2022-11-03T11:05:13;1.52;;;1.00;;
63398;SDS011;49533;-34.520;150.798;2022-11-03T11:07:50;5.03;;;1.45;;
63398;SDS011;49533;-34.520;150.798;2022-11-03T11:10:21;1.85;;;1.05;;
63398;SDS011;49533;-34.520;150.798;2022-11-03T11:15:51;2.50;;;1.33;;
63398;SDS011;49533;-34.520;150.798;2022-11-03T11:33:21;3.75;;;1.20;;
63398;SDS011;49533;-34.520;150.798;2022-11-03T11:38:53;3.53;;;1.02;;
63398;SDS011;49533;-34.520;150.798;2022-11-03T11:44:48;2.25;;;0.88;;
63398;SDS011;49533;-34.520;150.798;2022-11-03T11:52:50;3.70;;;1.30;;
63398;SDS011;49533;-34.520;150.798;2022-11-03T11:55:39;3.25;;;1.15;;
63398;SDS011;49533;-34.520;150.798;2022-11-03T11:58:22;1.40;;;0.85;;
63398;SDS011;49533;-34.520;150.798;2022-11-03T12:01:00;2.80;;;0.80;;
63398;SDS011;49533;-34.520;150.798;2022-11-03T12:03:34;2.78;;;1.00;;
63398;SDS011;49533;-34.520;150.798;2022-11-03T12:06:05;4.88;;;0.80;;
63398;SDS011;49533;-34.520;150.798;2022-11-03T12:08:35;4.95;;;1.20;;
63398;SDS011;49533;-34.520;150.798;2022-11-03T12:11:04;2.85;;;1.02;;
63398;SDS011;49533;-34.520;150.798;2022-11-03T12:13:36;2.80;;;0.80;;
63398;SDS011;49533;-34.520;150.798;2022-11-03T12:18:53;2.50;;;1.17;;
63398;SDS011;49533;-34.520;150.798;2022-11-03T12:27:02;4.22;;;1.15;;
63398;SDS011;49533;-34.520;150.798;2022-11-03T12:29:43;3.42;;;1.38;;
63398;SDS011;49533;-34.520;150.798;2022-11-03T12:32:11;1.95;;;0.82;;
63398;SDS011;49533;-34.520;150.798;2022-11-03T12:34:40;1.50;;;0.80;;
63398;SDS011;49533;-34.520;150.798;2022-11-03T12:37:08;1.70;;;0.63;;
63398;SDS011;49533;-34.520;150.798;2022-11-03T12:39:36;2.95;;;1.20;;
63398;SDS011;49533;-34.520;150.798;2022-11-03T12:42:04;1.30;;;0.60;;
63398;SDS011;49533;-34.520;150.798;2022-11-03T12:44:32;2.97;;;0.90;;
63398;SDS011;49533;-34.520;150.798;2022-11-03T12:47:00;2.00;;;0.75;;
63398;SDS011;49533;-34.520;150.798;2022-11-03T12:49:29;0.88;;;0.70;;
63398;SDS011;49533;-34.520;150.798;2022-11-03T12:51:57;2.30;;;1.13;;
63398;SDS011;49533;-34.520;150.798;2022-11-03T12:54:31;3.90;;;1.10;;
63398;SDS011;49533;-34.520;150.798;2022-11-03T12:56:59;1.58;;;0.93;;
63398;SDS011;49533;-34.520;150.798;2022-11-03T12:59:28;1.67;;;0.70;;
63398;SDS011;49533;-34.520;150.798;2022-11-03T13:01:56;2.10;;;1.10;;
63398;SDS011;49533;-34.520;150.798;2022-11-03T13:04:24;2.05;;;1.13;;
63398;SDS011;49533;-34.520;150.798;2022-11-03T13:06:52;4.25;;;1.42;;
63398;SDS011;49533;-34.520;150.798;2022-11-03T13:09:20;3.88;;;1.02;;
63398;SDS011;49533;-34.520;150.798;2022-11-03T13:11:48;4.20;;;0.98;;
63398;SDS011;49533;-34.520;150.798;2022-11-03T13:14:28;2.05;;;1.15;;
63398;SDS011;49533;-34.520;150.798;2022-11-03T13:16:55;3.38;;;1.33;;
63398;SDS011;49533;-34.520;150.798;2022-11-03T13:19:23;1.48;;;0.95;;
63398;SDS011;49533;-34.520;150.798;2022-11-03T13:21:51;1.77;;;0.98;;
63398;SDS011;49533;-34.520;150.798;2022-11-03T13:24:19;3.47;;;1.00;;
63398;SDS011;49533;-34.520;150.798;2022-11-03T13:26:47;1.88;;;0.93;;
63398;SDS011;49533;-34.520;150.798;2022-11-03T13:29:16;2.35;;;1.10;;
63398;SDS011;49533;-34.520;150.798;2022-11-03T13:31:44;4.40;;;1.30;;
63398;SDS011;49533;-34.520;150.798;2022-11-03T13:34:12;2.13;;;0.88;;
63398;SDS011;49533;-34.520;150.798;2022-11-03T13:36:41;2.10;;;1.10;;
63398;SDS011;49533;-34.520;150.798;2022-11-03T13:39:09;2.13;;;1.20;;
63398;SDS011;49533;-34.520;150.798;2022-11-03T13:41:37;3.20;;;1.00;;
63398;SDS011;49533;-34.520;150.798;2022-11-03T13:44:05;2.75;;;1.52;;
63398;SDS011;49533;-34.520;150.798;2022-11-03T13:46:33;2.33;;;1.02;;
63398;SDS011;49533;-34.520;150.798;2022-11-03T13:49:01;4.30;;;1.50;;
63398;SDS011;49533;-34.520;150.798;2022-11-03T13:51:29;1.92;;;0.98;;
63398;SDS011;49533;-34.520;150.798;2022-11-03T13:53:57;3.97;;;1.27;;
63398;SDS011;49533;-34.520;150.798;2022-11-03T13:56:25;1.73;;;0.80;;
63398;SDS011;49533;-34.520;150.798;2022-11-03T13:58:53;5.70;;;1.25;;
63398;SDS011;49533;-34.520;150.798;2022-11-03T14:01:22;2.53;;;1.05;;
63398;SDS011;49533;-34.520;150.798;2022-11-03T14:03:50;2.35;;;1.27;;
63398;SDS011;49533;-34.520;150.798;2022-11-03T14:06:18;2.08;;;1.20;;
63398;SDS011;49533;-34.520;150.798;2022-11-03T14:08:46;3.47;;;1.38;;
63398;SDS011;49533;-34.520;150.798;2022-11-03T14:11:14;2.53;;;0.98;;
63398;SDS011;49533;-34.520;150.798;2022-11-03T14:13:54;3.38;;;1.15;;
63398;SDS011;49533;-34.520;150.798;2022-11-03T14:16:22;2.78;;;1.15;;
63398;SDS011;49533;-34.520;150.798;2022-11-03T14:18:50;1.52;;;0.80;;
63398;SDS011;49533;-34.520;150.798;2022-11-03T14:21:18;2.88;;;0.90;;
63398;SDS011;49533;-34.520;150.798;2022-11-03T14:23:46;0.90;;;0.68;;
63398;SDS011;49533;-34.520;150.798;2022-11-03T14:26:13;3.08;;;1.10;;
63398;SDS011;49533;-34.520;150.798;2022-11-03T14:28:41;0.80;;;0.63;;
63398;SDS011;49533;-34.520;150.798;2022-11-03T14:31:10;3.33;;;1.10;;
63398;SDS011;49533;-34.520;150.798;2022-11-03T14:33:38;1.88;;;1.33;;
63398;SDS011;49533;-34.520;150.798;2022-11-03T14:36:06;2.03;;;0.80;;
63398;SDS011;49533;-34.520;150.798;2022-11-03T14:38:35;1.83;;;1.13;;
63398;SDS011;49533;-34.520;150.798;2022-11-03T14:41:03;1.75;;;0.80;;
63398;SDS011;49533;-34.520;150.798;2022-11-03T14:43:43;2.60;;;1.10;;
63398;SDS011;49533;-34.520;150.798;2022-11-03T14:46:11;2.13;;;0.70;;
63398;SDS011;49533;-34.520;150.798;2022-11-03T14:48:39;3.40;;;1.10;;
63398;SDS011;49533;-34.520;150.798;2022-11-03T14:51:07;2.60;;;1.05;;
63398;SDS011;49533;-34.520;150.798;2022-11-03T14:53:35;2.55;;;0.80;;
63398;SDS011;49533;-34.520;150.798;2022-11-03T14:56:03;1.88;;;0.90;;
63398;SDS011;49533;-34.520;150.798;2022-11-03T14:58:31;1.00;;;0.85;;
63398;SDS011;49533;-34.520;150.798;2022-11-03T15:00:59;2.13;;;0.90;;
63398;SDS011;49533;-34.520;150.798;2022-11-03T15:03:28;1.35;;;0.68;;
63398;SDS011;49533;-34.520;150.798;2022-11-03T15:05:56;4.15;;;1.30;;
63398;SDS011;49533;-34.520;150.798;2022-11-03T15:08:24;2.97;;;1.00;;
63398;SDS011;49533;-34.520;150.798;2022-11-03T15:10:54;2.10;;;0.90;;
63398;SDS011;49533;-34.520;150.798;2022-11-03T15:13:22;2.42;;;0.85;;
63398;SDS011;49533;-34.520;150.798;2022-11-03T15:15:50;2.78;;;1.13;;
63398;SDS011;49533;-34.520;150.798;2022-11-03T15:18:18;2.70;;;0.77;;
63398;SDS011;49533;-34.520;150.798;2022-11-03T15:20:46;4.03;;;1.05;;
63398;SDS011;49533;-34.520;150.798;2022-11-03T15:23:14;1.88;;;0.90;;
63398;SDS011;49533;-34.520;150.798;2022-11-03T15:25:42;1.95;;;1.15;;
63398;SDS011;49533;-34.520;150.798;2022-11-03T15:28:10;2.88;;;1.20;;